createdAt,value
2019-02-07T00:06:16.653Z,69.30
2019-02-07T00:16:18.610Z,69.00
2019-02-07T00:26:20.995Z,68.20
2019-02-07T00:36:23.439Z,67.40
2019-02-07T00:46:25.664Z,67.20
2019-02-07T00:56:27.602Z,67.10
2019-02-07T01:06:29.901Z,68.00
2019-02-07T01:16:31.894Z,67.70
2019-02-07T01:26:33.922Z,68.50
2019-02-07T01:36:36.152Z,68.90
2019-02-07T01:46:38.902Z,69.80
2019-02-07T01:56:40.866Z,69.60
2019-02-07T02:06:43.043Z,69.60
2019-02-07T02:16:45.225Z,69.60
2019-02-07T02:26:47.662Z,69.90
2019-02-07T02:36:52.774Z,69.90
2019-02-07T02:46:54.902Z,70.00
2019-02-07T02:56:56.844Z,70.60
2019-02-07T03:06:58.870Z,71.20
2019-02-07T03:17:01.280Z,71.50
2019-02-07T03:27:03.538Z,71.90
2019-02-07T03:37:05.873Z,72.00
2019-02-07T03:47:07.778Z,72.10
2019-02-07T03:57:10.128Z,71.10
2019-02-07T04:07:12.189Z,70.60
2019-02-07T04:17:14.342Z,70.10
2019-02-07T04:27:16.275Z,69.60
2019-02-07T04:37:18.520Z,69.50
2019-02-07T04:47:20.443Z,68.70
2019-02-07T04:57:22.410Z,68.10
2019-02-07T05:07:24.555Z,68.00
2019-02-07T05:17:26.735Z,67.60
2019-02-07T05:27:29.000Z,67.50
2019-02-07T05:37:31.255Z,67.50
2019-02-07T05:47:33.390Z,67.70
2019-02-07T05:57:35.379Z,67.50
2019-02-07T06:07:37.303Z,67.70
2019-02-07T06:17:39.554Z,67.00
2019-02-07T06:27:41.501Z,67.60
2019-02-07T06:37:43.618Z,67.90
2019-02-07T06:47:45.650Z,67.80
2019-02-07T06:57:47.999Z,68.10
2019-02-07T07:07:50.003Z,68.80
2019-02-07T07:17:54.110Z,70.00
2019-02-07T07:27:56.163Z,72.20
2019-02-07T07:37:58.385Z,74.00
2019-02-07T07:48:00.680Z,74.00
2019-02-07T07:58:03.067Z,75.00
2019-02-07T08:08:05.103Z,76.20
2019-02-07T08:18:07.085Z,77.90
2019-02-07T08:28:09.418Z,79.50
2019-02-07T08:38:11.413Z,80.50
2019-02-07T08:48:13.392Z,82.20
2019-02-07T08:58:15.359Z,80.70
2019-02-07T09:08:17.390Z,80.90
2019-02-07T09:18:19.370Z,81.00
2019-02-07T09:28:21.326Z,78.60
2019-02-07T09:38:23.307Z,76.30
2019-02-07T09:48:25.318Z,74.80
2019-02-07T09:58:27.263Z,74.10
2019-02-07T10:08:29.216Z,73.00
2019-02-07T10:18:33.326Z,70.90
2019-02-07T10:28:35.847Z,66.70
2019-02-07T10:38:39.920Z,64.70
2019-02-07T10:48:44.491Z,63.00
2019-02-07T10:58:46.442Z,62.60
2019-02-07T11:08:48.408Z,61.70
2019-02-07T11:18:55.630Z,60.90
2019-02-07T11:28:54.443Z,60.10
2019-02-07T11:38:56.560Z,60.10
2019-02-07T11:49:06.485Z,59.80
2019-02-07T11:59:03.449Z,59.80
2019-02-07T12:09:08.403Z,58.50
2019-02-07T12:19:17.767Z,57.60
2019-02-07T12:29:33.616Z,56.30
2019-02-07T12:39:36.307Z,54.80
2019-02-07T12:49:38.402Z,54.10
2019-02-07T12:59:40.379Z,53.40
2019-02-07T13:09:42.858Z,53.30
2019-02-07T13:19:45.486Z,53.30
2019-02-07T13:29:47.444Z,53.00
2019-02-07T13:39:49.435Z,52.40
2019-02-07T13:49:52.362Z,52.50
2019-02-07T13:59:54.639Z,52.20
2019-02-07T14:09:56.581Z,52.00
2019-02-07T14:20:03.729Z,52.00
2019-02-07T14:30:03.171Z,51.00
2019-02-07T14:40:07.495Z,52.00
2019-02-07T14:50:14.979Z,51.50
2019-02-07T15:00:17.408Z,51.90
2019-02-07T15:10:38.790Z,51.70
2019-02-07T15:20:40.794Z,50.40
2019-02-07T15:30:42.782Z,51.20
2019-02-07T15:40:45.395Z,51.30
2019-02-07T15:50:47.670Z,52.00
2019-02-07T16:00:49.619Z,52.20
2019-02-07T16:10:51.930Z,52.40
2019-02-07T16:20:53.917Z,52.60
2019-02-07T16:30:56.091Z,52.70
2019-02-07T16:40:59.139Z,53.30
2019-02-07T16:51:03.181Z,54.60
2019-02-07T17:01:06.922Z,55.30
2019-02-07T17:11:09.002Z,55.80
2019-02-07T17:21:12.922Z,56.70
2019-02-07T17:31:15.292Z,57.40
2019-02-07T17:41:17.567Z,57.90
2019-02-07T17:51:23.351Z,58.10
2019-02-07T18:01:23.287Z,58.30
2019-02-07T18:11:25.674Z,58.50
2019-02-07T18:21:33.921Z,58.60
2019-02-07T18:31:31.400Z,58.50
2019-02-07T18:41:33.363Z,58.80
2019-02-07T18:51:45.205Z,59.20
2019-02-07T19:01:39.152Z,59.80
2019-02-07T19:11:41.134Z,60.30
2019-02-07T19:21:43.798Z,61.10
2019-02-07T19:31:45.911Z,61.00
2019-02-07T19:41:48.659Z,61.40
2019-02-07T19:51:50.745Z,61.50
2019-02-07T20:01:52.934Z,62.00
2019-02-07T20:11:55.023Z,62.30
2019-02-07T20:21:57.111Z,62.60
2019-02-07T20:31:59.642Z,62.90
2019-02-07T20:42:01.855Z,63.00
2019-02-07T20:52:04.355Z,63.00
2019-02-07T21:02:06.311Z,62.90
2019-02-07T21:12:08.427Z,63.40
2019-02-07T21:22:10.474Z,63.40
2019-02-07T21:32:13.164Z,63.40
2019-02-07T21:42:15.312Z,63.70
2019-02-07T21:52:17.458Z,63.40
2019-02-07T22:02:20.319Z,63.20
2019-02-07T22:12:22.620Z,63.20
2019-02-07T22:22:24.599Z,63.30
2019-02-07T22:32:26.923Z,63.30
2019-02-07T22:42:29.240Z,63.20
2019-02-07T22:52:31.566Z,63.40
2019-02-07T23:02:33.729Z,63.30
2019-02-07T23:12:36.116Z,63.50
2019-02-07T23:22:38.350Z,63.50
2019-02-07T23:32:40.727Z,64.00
2019-02-07T23:42:43.099Z,63.70
2019-02-07T23:52:45.065Z,64.10
